Time;durP1;ratioP1;P1;durP2;ratioP2;P2;SDS_P1;SDS_P2;PMS_P1;PMS_P2;Temp;Humidity;BMP_temperature;BMP_pressure;BME280_temperature;BME280_humidity;BME280_pressure;Samples;Min_cycle;Max_cycle;Signal;HPM_P1;HPM_P2
2023/09/13 00:01:49;;;;;;;6.70;1.55;;;;;;;;;;4865316;29;20048;-73
2023/09/13 00:04:15;;;;;;;9.93;2.58;;;;;;;;;;4871055;29;20115;-73
2023/09/13 00:06:41;;;;;;;12.63;2.17;;;;;;;;;;4862077;29;20119;-73
2023/09/13 00:09:08;;;;;;;7.03;1.83;;;;;;;;;;4864368;29;20049;-73
2023/09/13 00:11:35;;;;;;;7.18;1.73;;;;;;;;;;4862693;29;20048;-72
2023/09/13 00:14:02;;;;;;;4.43;1.60;;;;;;;;;;4865382;29;20048;-72
2023/09/13 00:16:28;;;;;;;8.80;1.60;;;;;;;;;;4864678;29;20057;-72
2023/09/13 00:18:54;;;;;;;8.07;1.92;;;;;;;;;;4866784;29;20059;-72
2023/09/13 00:21:20;;;;;;;9.75;1.80;;;;;;;;;;4850998;29;20044;-72
2023/09/13 00:23:46;;;;;;;13.15;2.03;;;;;;;;;;4868476;29;20129;-72
2023/09/13 00:26:14;;;;;;;8.07;1.77;;;;;;;;;;4866890;29;20056;-72
2023/09/13 00:28:40;;;;;;;10.52;2.10;;;;;;;;;;4868919;29;20052;-72
2023/09/13 00:31:09;;;;;;;14.38;2.05;;;;;;;;;;4868709;29;20084;-73
2023/09/13 00:33:35;;;;;;;8.63;2.13;;;;;;;;;;4866079;29;20059;-73
2023/09/13 00:36:01;;;;;;;6.75;1.90;;;;;;;;;;4867518;29;20068;-73
2023/09/13 00:38:27;;;;;;;10.60;1.88;;;;;;;;;;4870472;29;20553;-72
2023/09/13 00:40:53;;;;;;;16.27;2.70;;;;;;;;;;4861510;29;20711;-73
2023/09/13 00:43:19;;;;;;;16.77;3.33;;;;;;;;;;4868473;29;20139;-73
2023/09/13 00:45:46;;;;;;;13.00;2.03;;;;;;;;;;4863455;29;20045;-73
2023/09/13 00:48:12;;;;;;;9.85;1.83;;;;;;;;;;4863228;29;20878;-73
2023/09/13 00:50:38;;;;;;;12.07;2.65;;;;;;;;;;4860948;29;20051;-73
2023/09/13 00:53:05;;;;;;;12.43;3.03;;;;;;;;;;4864665;29;20059;-72
2023/09/13 00:55:32;;;;;;;7.43;2.17;;;;;;;;;;4866309;29;20047;-74
2023/09/13 00:57:58;;;;;;;9.15;1.80;;;;;;;;;;4866121;29;20075;-74
2023/09/13 01:00:27;;;;;;;6.53;2.13;;;;;;;;;;4865509;29;20060;-73
2023/09/13 01:02:53;;;;;;;7.65;2.22;;;;;;;;;;4867195;29;20054;-74
2023/09/13 01:05:19;;;;;;;10.55;2.13;;;;;;;;;;4865823;29;20510;-74
2023/09/13 01:07:46;;;;;;;12.05;1.80;;;;;;;;;;4873627;29;20208;-74
2023/09/13 01:10:13;;;;;;;8.88;2.28;;;;;;;;;;4870169;29;20104;-74
2023/09/13 01:12:39;;;;;;;6.70;1.85;;;;;;;;;;4877441;29;20179;-74
2023/09/13 01:15:07;;;;;;;10.32;1.80;;;;;;;;;;4867259;29;20067;-73
2023/09/13 01:18:05;;;;;;;6.10;2.00;;;;;;;;;;4867956;29;20060;-73
2023/09/13 01:20:50;;;;;;;9.23;2.00;;;;;;;;;;4857145;29;20074;-73
2023/09/13 01:23:16;;;;;;;10.20;1.70;;;;;;;;;;4882645;29;20049;-74
2023/09/13 01:26:00;;;;;;;9.80;1.90;;;;;;;;;;4866250;29;20049;-73
2023/09/13 01:28:36;;;;;;;7.88;2.17;;;;;;;;;;4868260;29;20059;-73
2023/09/13 01:31:04;;;;;;;10.55;2.00;;;;;;;;;;4864288;29;20473;-73
2023/09/13 01:33:30;;;;;;;7.35;1.63;;;;;;;;;;4865110;29;21440;-73
2023/09/13 01:35:56;;;;;;;11.70;2.30;;;;;;;;;;4863700;29;20584;-74
2023/09/13 01:38:22;;;;;;;6.63;1.33;;;;;;;;;;4863596;29;20045;-74
2023/09/13 01:40:49;;;;;;;8.82;1.88;;;;;;;;;;4865306;29;20063;-74
2023/09/13 01:43:16;;;;;;;5.90;1.95;;;;;;;;;;4865515;29;20072;-73
2023/09/13 01:45:42;;;;;;;8.30;1.80;;;;;;;;;;4866525;29;20048;-73
2023/09/13 01:48:11;;;;;;;6.50;1.50;;;;;;;;;;4867738;29;20045;-73
2023/09/13 01:50:38;;;;;;;5.03;1.85;;;;;;;;;;4869399;29;20052;-73
2023/09/13 01:53:04;;;;;;;9.45;1.70;;;;;;;;;;4866962;29;20565;-74
2023/09/13 01:55:30;;;;;;;4.97;1.67;;;;;;;;;;4867135;29;20044;-73
2023/09/13 01:57:56;;;;;;;6.95;2.08;;;;;;;;;;4865069;29;20045;-73
2023/09/13 02:00:22;;;;;;;7.10;1.73;;;;;;;;;;4867569;29;21053;-74
2023/09/13 02:02:48;;;;;;;8.13;1.80;;;;;;;;;;4864232;29;20052;-73
2023/09/13 02:05:14;;;;;;;14.15;1.90;;;;;;;;;;4868627;29;20287;-74
2023/09/13 02:07:40;;;;;;;8.90;2.75;;;;;;;;;;4865683;29;20497;-74
2023/09/13 02:10:07;;;;;;;5.38;1.75;;;;;;;;;;4868109;29;20036;-74
2023/09/13 02:12:33;;;;;;;7.95;1.92;;;;;;;;;;4863923;29;20062;-73
2023/09/13 02:14:59;;;;;;;13.90;2.75;;;;;;;;;;4863445;29;20049;-73
2023/09/13 02:17:25;;;;;;;7.18;1.80;;;;;;;;;;4868455;29;20135;-72
2023/09/13 02:19:51;;;;;;;10.80;2.38;;;;;;;;;;4865505;29;20048;-72
2023/09/13 02:22:17;;;;;;;9.27;1.80;;;;;;;;;;4864657;29;20060;-72
2023/09/13 02:24:43;;;;;;;10.43;2.13;;;;;;;;;;4864785;29;21117;-73
2023/09/13 02:27:09;;;;;;;11.98;2.25;;;;;;;;;;4866445;29;20139;-73
2023/09/13 02:29:36;;;;;;;8.75;2.25;;;;;;;;;;4862989;29;20131;-74
2023/09/13 02:32:02;;;;;;;9.10;2.08;;;;;;;;;;4865548;29;20492;-72
2023/09/13 02:34:28;;;;;;;10.98;2.17;;;;;;;;;;4867585;29;20098;-73
2023/09/13 02:36:54;;;;;;;10.48;2.05;;;;;;;;;;4866721;29;20092;-73
2023/09/13 02:39:31;;;;;;;9.93;2.47;;;;;;;;;;4867594;29;20398;-73
2023/09/13 02:41:57;;;;;;;10.55;2.42;;;;;;;;;;4865804;29;20882;-73
2023/09/13 02:44:23;;;;;;;10.65;2.40;;;;;;;;;;4866013;29;20045;-73
2023/09/13 02:46:49;;;;;;;10.95;1.88;;;;;;;;;;4863160;29;20768;-72
2023/09/13 02:49:15;;;;;;;5.18;1.45;;;;;;;;;;4864527;29;20469;-73
2023/09/13 02:51:42;;;;;;;11.57;2.45;;;;;;;;;;4865527;29;20055;-73
2023/09/13 02:54:08;;;;;;;5.88;1.60;;;;;;;;;;4865891;29;20049;-73
2023/09/13 02:56:34;;;;;;;12.43;2.22;;;;;;;;;;4865085;29;20139;-74
2023/09/13 02:59:00;;;;;;;8.60;1.90;;;;;;;;;;4861593;29;20044;-73
2023/09/13 03:01:26;;;;;;;7.82;1.67;;;;;;;;;;4863103;29;20048;-72
2023/09/13 03:03:52;;;;;;;10.65;2.40;;;;;;;;;;4864398;29;20737;-72
2023/09/13 03:06:19;;;;;;;7.30;1.65;;;;;;;;;;4860864;29;20193;-73
2023/09/13 03:08:45;;;;;;;14.50;2.40;;;;;;;;;;4868033;29;20037;-73
2023/09/13 03:11:12;;;;;;;9.60;1.75;;;;;;;;;;4868965;29;20048;-72
2023/09/13 03:13:38;;;;;;;6.72;1.80;;;;;;;;;;4865809;29;20123;-73
2023/09/13 03:16:14;;;;;;;7.78;1.73;;;;;;;;;;4869677;29;20705;-72
2023/09/13 03:18:41;;;;;;;6.97;1.83;;;;;;;;;;4867154;29;20097;-73
2023/09/13 03:21:10;;;;;;;9.32;2.22;;;;;;;;;;4864260;29;20083;-72
2023/09/13 03:23:37;;;;;;;7.88;2.20;;;;;;;;;;4863880;29;20094;-72
2023/09/13 03:26:11;;;;;;;8.85;2.05;;;;;;;;;;4862044;29;20509;-72
2023/09/13 03:28:37;;;;;;;6.82;1.65;;;;;;;;;;4862945;29;20472;-72
2023/09/13 03:31:08;;;;;;;12.13;1.90;;;;;;;;;;4861628;29;20597;-72
2023/09/13 03:33:34;;;;;;;12.77;1.98;;;;;;;;;;4862007;29;20286;-72
2023/09/13 03:36:00;;;;;;;8.02;2.28;;;;;;;;;;4862032;29;20756;-73
2023/09/13 03:38:26;;;;;;;9.55;2.65;;;;;;;;;;4862746;29;20046;-72
2023/09/13 03:40:52;;;;;;;7.15;1.70;;;;;;;;;;4862776;29;21565;-72
2023/09/13 03:43:18;;;;;;;12.63;2.08;;;;;;;;;;4859376;29;20187;-72
2023/09/13 03:45:44;;;;;;;6.63;2.22;;;;;;;;;;4859752;29;20220;-72
2023/09/13 03:48:10;;;;;;;6.95;1.92;;;;;;;;;;4859556;29;20050;-73
2023/09/13 03:50:36;;;;;;;5.47;1.67;;;;;;;;;;4859040;29;20041;-72
2023/09/13 03:53:02;;;;;;;5.80;1.83;;;;;;;;;;4856314;29;20049;-72
2023/09/13 03:55:28;;;;;;;9.32;2.63;;;;;;;;;;4859122;29;20511;-73
2023/09/13 03:57:54;;;;;;;11.10;1.80;;;;;;;;;;4859295;29;20052;-73
2023/09/13 04:00:20;;;;;;;9.07;2.00;;;;;;;;;;4860272;29;20542;-73
2023/09/13 04:02:47;;;;;;;9.35;2.28;;;;;;;;;;4858687;29;20489;-72
2023/09/13 04:05:13;;;;;;;10.45;1.85;;;;;;;;;;4866620;29;20659;-73
2023/09/13 04:07:39;;;;;;;6.03;1.80;;;;;;;;;;4859529;29;20714;-73
2023/09/13 04:10:06;;;;;;;5.25;2.00;;;;;;;;;;4863874;29;20132;-72
2023/09/13 04:12:32;;;;;;;10.02;1.92;;;;;;;;;;4864594;29;20219;-72
2023/09/13 04:14:58;;;;;;;6.68;1.83;;;;;;;;;;4865062;29;20045;-72
2023/09/13 04:17:24;;;;;;;9.02;2.20;;;;;;;;;;4863575;29;20079;-72
2023/09/13 04:19:50;;;;;;;10.30;2.50;;;;;;;;;;4862508;29;20044;-72
2023/09/13 04:22:16;;;;;;;9.65;1.92;;;;;;;;;;4866638;29;20051;-71
2023/09/13 04:24:42;;;;;;;7.80;1.80;;;;;;;;;;4859900;29;20056;-72
2023/09/13 04:27:09;;;;;;;7.30;1.85;;;;;;;;;;4861781;29;20055;-72
2023/09/13 04:29:39;;;;;;;9.27;1.90;;;;;;;;;;4865484;29;20052;-71
2023/09/13 04:32:06;;;;;;;6.43;2.13;;;;;;;;;;4867082;29;20052;-71
2023/09/13 04:34:36;;;;;;;9.25;2.20;;;;;;;;;;4865863;29;20513;-72
2023/09/13 04:37:05;;;;;;;11.38;2.20;;;;;;;;;;4862199;29;20052;-71
2023/09/13 04:39:32;;;;;;;14.02;2.10;;;;;;;;;;4861108;29;22025;-72
2023/09/13 04:41:58;;;;;;;9.68;2.00;;;;;;;;;;4862195;29;20044;-72
2023/09/13 04:44:27;;;;;;;11.32;2.22;;;;;;;;;;4865437;29;20123;-71
2023/09/13 04:46:53;;;;;;;13.07;2.10;;;;;;;;;;4861207;29;20056;-71
2023/09/13 04:49:19;;;;;;;14.88;2.15;;;;;;;;;;4862704;29;20100;-71
2023/09/13 04:51:46;;;;;;;13.27;2.58;;;;;;;;;;4859946;29;20052;-71
2023/09/13 04:54:12;;;;;;;8.40;2.08;;;;;;;;;;4859414;29;20075;-71
2023/09/13 04:56:38;;;;;;;10.43;2.15;;;;;;;;;;4873486;29;20073;-72
2023/09/13 04:59:04;;;;;;;8.93;2.28;;;;;;;;;;4864159;29;20167;-71
2023/09/13 05:01:31;;;;;;;14.20;2.70;;;;;;;;;;4870217;29;20529;-72
2023/09/13 05:03:57;;;;;;;8.27;2.22;;;;;;;;;;4871831;29;20175;-71
2023/09/13 05:06:23;;;;;;;13.85;2.30;;;;;;;;;;4872770;29;20135;-72
2023/09/13 05:08:53;;;;;;;13.35;2.28;;;;;;;;;;4868352;29;20055;-72
2023/09/13 05:11:19;;;;;;;17.40;2.72;;;;;;;;;;4870156;29;20517;-72
2023/09/13 05:13:48;;;;;;;9.85;2.53;;;;;;;;;;4875685;29;20604;-72
2023/09/13 05:16:19;;;;;;;16.70;2.83;;;;;;;;;;4869055;29;20055;-72
2023/09/13 05:18:45;;;;;;;20.52;2.10;;;;;;;;;;4863769;29;20445;-72
2023/09/13 05:21:11;;;;;;;13.88;2.40;;;;;;;;;;4865422;29;20059;-72
2023/09/13 05:23:37;;;;;;;16.48;2.75;;;;;;;;;;4868038;29;20044;-72
2023/09/13 05:26:03;;;;;;;19.17;3.03;;;;;;;;;;4867600;29;20522;-72
2023/09/13 05:28:35;;;;;;;23.45;3.17;;;;;;;;;;4864334;29;20056;-72
2023/09/13 05:31:02;;;;;;;18.08;2.80;;;;;;;;;;4867757;29;20040;-73
2023/09/13 05:33:29;;;;;;;17.52;3.00;;;;;;;;;;4853502;29;20059;-72
2023/09/13 05:35:55;;;;;;;21.02;4.20;;;;;;;;;;4870041;29;20083;-72
2023/09/13 05:38:21;;;;;;;16.20;3.03;;;;;;;;;;4870324;29;20961;-79
2023/09/13 05:40:48;;;;;;;18.13;3.38;;;;;;;;;;4863033;29;20548;-83
2023/09/13 05:43:14;;;;;;;14.85;2.78;;;;;;;;;;4875223;29;20067;-83
2023/09/13 05:45:43;;;;;;;20.02;3.30;;;;;;;;;;4875663;29;20056;-72
2023/09/13 05:48:09;;;;;;;14.35;3.30;;;;;;;;;;4870156;29;20036;-71
2023/09/13 05:50:35;;;;;;;20.05;3.80;;;;;;;;;;4863173;29;20059;-72
2023/09/13 05:53:02;;;;;;;11.63;2.08;;;;;;;;;;4868632;29;20183;-72
2023/09/13 05:55:28;;;;;;;18.60;3.38;;;;;;;;;;4876944;29;20096;-72
2023/09/13 05:57:54;;;;;;;21.27;4.15;;;;;;;;;;4870196;29;20051;-72
2023/09/13 06:00:20;;;;;;;29.65;4.40;;;;;;;;;;4864943;29;20064;-71
2023/09/13 06:02:46;;;;;;;19.77;3.80;;;;;;;;;;4868359;29;20416;-72
2023/09/13 06:05:12;;;;;;;21.55;3.25;;;;;;;;;;4868299;29;20052;-72
2023/09/13 06:07:39;;;;;;;22.27;4.97;;;;;;;;;;4872301;29;20044;-72
2023/09/13 06:10:06;;;;;;;23.88;3.70;;;;;;;;;;4871541;29;20044;-72
2023/09/13 06:12:32;;;;;;;16.23;3.30;;;;;;;;;;4868914;29;20051;-73
2023/09/13 06:14:59;;;;;;;29.92;5.35;;;;;;;;;;4867803;29;20044;-72
2023/09/13 06:17:25;;;;;;;17.75;3.35;;;;;;;;;;4870093;29;20048;-72
2023/09/13 06:19:52;;;;;;;14.52;4.10;;;;;;;;;;4868002;29;20051;-72
2023/09/13 06:22:19;;;;;;;10.13;2.85;;;;;;;;;;4870565;29;22116;-72
2023/09/13 06:24:45;;;;;;;18.80;4.10;;;;;;;;;;4860739;29;20072;-72
2023/09/13 06:27:11;;;;;;;18.80;3.83;;;;;;;;;;4868961;29;20059;-72
2023/09/13 06:29:37;;;;;;;15.75;3.72;;;;;;;;;;4865762;29;20096;-72
2023/09/13 06:32:04;;;;;;;13.95;2.85;;;;;;;;;;4866606;29;20057;-71
2023/09/13 06:34:30;;;;;;;16.00;3.30;;;;;;;;;;4869481;29;20108;-71
2023/09/13 06:36:56;;;;;;;13.02;2.95;;;;;;;;;;4867545;29;20060;-72
2023/09/13 06:39:22;;;;;;;21.98;3.63;;;;;;;;;;4867999;29;20048;-71
2023/09/13 06:41:48;;;;;;;18.00;3.55;;;;;;;;;;4870753;29;20055;-72
2023/09/13 06:44:14;;;;;;;17.38;2.88;;;;;;;;;;4874135;29;20116;-72
2023/09/13 06:46:42;;;;;;;14.95;3.40;;;;;;;;;;4881761;29;20087;-72
2023/09/13 06:49:08;;;;;;;14.68;3.10;;;;;;;;;;4873764;29;20044;-72
2023/09/13 06:51:34;;;;;;;11.52;3.40;;;;;;;;;;4873630;29;20053;-72
2023/09/13 06:54:00;;;;;;;16.45;3.65;;;;;;;;;;4873462;29;20058;-72
2023/09/13 06:56:26;;;;;;;7.78;2.70;;;;;;;;;;4874529;29;20481;-72
2023/09/13 06:58:55;;;;;;;18.10;3.25;;;;;;;;;;4872377;29;20119;-72
2023/09/13 07:01:21;;;;;;;13.60;2.83;;;;;;;;;;4873116;29;20060;-72
2023/09/13 07:03:47;;;;;;;14.25;3.72;;;;;;;;;;4871086;29;20044;-73
2023/09/13 07:06:14;;;;;;;9.18;3.50;;;;;;;;;;4875654;29;20047;-72
2023/09/13 07:08:40;;;;;;;11.73;3.60;;;;;;;;;;4871998;29;20067;-72
2023/09/13 07:11:06;;;;;;;12.73;3.58;;;;;;;;;;4886992;29;20111;-72
2023/09/13 07:13:32;;;;;;;11.20;3.03;;;;;;;;;;4871603;29;20052;-72
2023/09/13 07:15:59;;;;;;;7.75;2.25;;;;;;;;;;4869610;29;20041;-72
2023/09/13 07:18:25;;;;;;;9.82;2.28;;;;;;;;;;4870916;29;20060;-72
2023/09/13 07:20:51;;;;;;;8.57;2.03;;;;;;;;;;4851776;29;20049;-72
2023/09/13 07:23:17;;;;;;;5.28;2.08;;;;;;;;;;4872499;29;20052;-72
2023/09/13 07:25:43;;;;;;;6.47;1.85;;;;;;;;;;4869673;29;20596;-72
2023/09/13 07:28:09;;;;;;;9.55;2.47;;;;;;;;;;4871959;29;20044;-72
2023/09/13 07:30:35;;;;;;;10.07;2.00;;;;;;;;;;4876011;29;20052;-72
2023/09/13 07:33:01;;;;;;;14.15;2.47;;;;;;;;;;4873202;29;20057;-73
2023/09/13 07:35:27;;;;;;;10.75;1.90;;;;;;;;;;4871716;29;20120;-72
2023/09/13 07:37:53;;;;;;;15.13;2.50;;;;;;;;;;4871598;29;20053;-72
2023/09/13 07:40:19;;;;;;;12.00;2.22;;;;;;;;;;4871815;29;20080;-72
2023/09/13 07:42:45;;;;;;;13.52;2.40;;;;;;;;;;4879115;29;20052;-72
2023/09/13 07:45:11;;;;;;;12.13;2.90;;;;;;;;;;4871053;29;20548;-72
2023/09/13 07:47:37;;;;;;;13.55;2.88;;;;;;;;;;4870730;29;20049;-72
2023/09/13 07:50:03;;;;;;;13.48;2.67;;;;;;;;;;4870542;29;20044;-71
2023/09/13 07:52:30;;;;;;;10.07;2.63;;;;;;;;;;4868970;29;20055;-72
2023/09/13 07:54:56;;;;;;;23.08;2.95;;;;;;;;;;4869798;29;20045;-71
2023/09/13 07:57:22;;;;;;;9.23;2.45;;;;;;;;;;4867928;29;20044;-71
2023/09/13 07:59:48;;;;;;;12.18;2.65;;;;;;;;;;4871123;29;20044;-72
2023/09/13 08:02:14;;;;;;;5.32;2.20;;;;;;;;;;4869979;29;20052;-72
2023/09/13 08:04:40;;;;;;;7.32;2.40;;;;;;;;;;4883837;29;20209;-72
2023/09/13 08:07:06;;;;;;;6.60;2.30;;;;;;;;;;4868659;29;20097;-72
2023/09/13 08:09:34;;;;;;;10.10;2.60;;;;;;;;;;4868003;29;20048;-72
2023/09/13 08:12:00;;;;;;;10.43;2.17;;;;;;;;;;4866692;29;20175;-72
2023/09/13 08:14:26;;;;;;;10.25;2.50;;;;;;;;;;4866218;29;20080;-72
2023/09/13 08:16:52;;;;;;;14.13;2.78;;;;;;;;;;4867596;29;20113;-72
2023/09/13 08:19:18;;;;;;;11.52;2.90;;;;;;;;;;4868418;29;20045;-72
2023/09/13 08:21:44;;;;;;;14.13;4.10;;;;;;;;;;4869210;29;20040;-71
2023/09/13 08:24:11;;;;;;;12.32;2.25;;;;;;;;;;4868362;29;20155;-72
2023/09/13 08:26:37;;;;;;;10.48;2.58;;;;;;;;;;4867841;29;20096;-72
2023/09/13 08:29:03;;;;;;;14.57;2.72;;;;;;;;;;4868445;29;20520;-72
2023/09/13 08:31:29;;;;;;;10.07;3.30;;;;;;;;;;4870826;29;20122;-71
2023/09/13 08:33:55;;;;;;;8.85;3.00;;;;;;;;;;4867266;29;20049;-72
2023/09/13 08:36:22;;;;;;;11.57;2.60;;;;;;;;;;4871143;29;20120;-71
2023/09/13 08:38:48;;;;;;;16.98;3.03;;;;;;;;;;4869467;29;20113;-72
2023/09/13 08:41:15;;;;;;;8.85;2.95;;;;;;;;;;4869279;29;20060;-69
2023/09/13 08:43:41;;;;;;;11.70;2.60;;;;;;;;;;4870587;29;20049;-69
2023/09/13 08:46:08;;;;;;;14.38;3.13;;;;;;;;;;4869651;29;20477;-69
2023/09/13 08:48:34;;;;;;;13.48;3.38;;;;;;;;;;4871188;29;20084;-69
2023/09/13 08:51:03;;;;;;;11.65;2.90;;;;;;;;;;4867204;29;20052;-68
2023/09/13 08:53:29;;;;;;;17.20;3.80;;;;;;;;;;4873384;29;20079;-69
2023/09/13 08:55:56;;;;;;;18.95;3.10;;;;;;;;;;4870939;29;20040;-69
2023/09/13 08:58:22;;;;;;;15.55;3.20;;;;;;;;;;4871960;29;20041;-69
2023/09/13 09:00:50;;;;;;;18.85;3.00;;;;;;;;;;4875590;29;20051;-68
2023/09/13 09:03:18;;;;;;;10.55;2.92;;;;;;;;;;4876845;29;20634;-68
2023/09/13 09:05:44;;;;;;;17.45;2.88;;;;;;;;;;4888321;29;20088;-68
2023/09/13 09:08:11;;;;;;;13.02;2.63;;;;;;;;;;4876902;29;20274;-69
2023/09/13 09:10:37;;;;;;;8.90;2.72;;;;;;;;;;4875693;29;20048;-69
2023/09/13 09:13:04;;;;;;;13.00;2.60;;;;;;;;;;4876484;29;20495;-69
2023/09/13 09:15:32;;;;;;;10.35;2.33;;;;;;;;;;4877323;29;20044;-71
2023/09/13 09:18:00;;;;;;;13.13;3.15;;;;;;;;;;4876774;29;20147;-68
2023/09/13 09:20:29;;;;;;;11.25;2.42;;;;;;;;;;4877013;29;20047;-69
2023/09/13 09:22:58;;;;;;;10.50;2.38;;;;;;;;;;4875329;29;20048;-69
2023/09/13 09:25:25;;;;;;;12.15;2.90;;;;;;;;;;4875929;29;20135;-69
2023/09/13 09:27:52;;;;;;;14.88;3.17;;;;;;;;;;4876169;29;20044;-69
2023/09/13 09:30:28;;;;;;;10.50;2.67;;;;;;;;;;4876215;29;20186;-69
2023/09/13 09:32:59;;;;;;;16.63;2.65;;;;;;;;;;4867964;29;20060;-69
2023/09/13 09:35:26;;;;;;;9.50;2.88;;;;;;;;;;4874761;29;20048;-70
2023/09/13 09:37:52;;;;;;;12.10;2.60;;;;;;;;;;4872709;29;20051;-70
2023/09/13 09:40:18;;;;;;;10.57;2.72;;;;;;;;;;4875586;29;20215;-70
2023/09/13 09:42:44;;;;;;;7.28;2.85;;;;;;;;;;4872202;29;20056;-69
2023/09/13 09:45:10;;;;;;;8.30;2.70;;;;;;;;;;4876084;29;20047;-69
2023/09/13 09:47:37;;;;;;;12.25;2.63;;;;;;;;;;4874854;29;20468;-70
2023/09/13 09:50:04;;;;;;;9.65;3.15;;;;;;;;;;4873386;29;20052;-70
2023/09/13 09:52:30;;;;;;;7.10;2.67;;;;;;;;;;4874428;29;20040;-70
2023/09/13 09:54:56;;;;;;;10.95;2.72;;;;;;;;;;4873513;29;20070;-70
2023/09/13 09:57:22;;;;;;;8.52;2.45;;;;;;;;;;4858146;29;20051;-70
2023/09/13 09:59:49;;;;;;;8.02;2.45;;;;;;;;;;4875736;29;20052;-70
2023/09/13 10:02:15;;;;;;;7.57;2.50;;;;;;;;;;4875434;29;20139;-70
2023/09/13 10:04:45;;;;;;;6.00;2.03;;;;;;;;;;4874247;29;20470;-70
2023/09/13 10:07:11;;;;;;;11.30;2.72;;;;;;;;;;4872995;29;20454;-68
2023/09/13 10:09:39;;;;;;;7.57;1.98;;;;;;;;;;4870811;29;20551;-69
2023/09/13 10:12:07;;;;;;;4.70;1.90;;;;;;;;;;4881578;29;20049;-72
2023/09/13 10:14:33;;;;;;;5.53;1.85;;;;;;;;;;4870437;29;20175;-73
2023/09/13 10:17:00;;;;;;;4.70;2.20;;;;;;;;;;4871191;29;20125;-67
2023/09/13 10:19:29;;;;;;;7.70;2.10;;;;;;;;;;4864050;29;20313;-66
2023/09/13 10:21:56;;;;;;;8.77;2.70;;;;;;;;;;4875678;29;20416;-67
2023/09/13 10:24:29;;;;;;;5.57;2.05;;;;;;;;;;4875283;29;20044;-66
2023/09/13 10:26:56;;;;;;;8.43;2.57;;;;;;;;;;4873688;29;20394;-68
2023/09/13 10:29:31;;;;;;;8.85;2.42;;;;;;;;;;4880384;29;20297;-67
2023/09/13 10:32:00;;;;;;;6.07;2.63;;;;;;;;;;4871626;29;20128;-67
2023/09/13 10:34:30;;;;;;;7.38;2.20;;;;;;;;;;4874338;29;20104;-67
2023/09/13 10:37:11;;;;;;;6.47;2.28;;;;;;;;;;4869628;29;20067;-67
2023/09/13 10:39:44;;;;;;;10.43;2.20;;;;;;;;;;4869950;29;20044;-67
2023/09/13 10:42:10;;;;;;;8.40;2.22;;;;;;;;;;4867548;29;20055;-67
2023/09/13 10:44:37;;;;;;;8.90;1.95;;;;;;;;;;4868907;29;20501;-67
2023/09/13 10:47:07;;;;;;;4.40;1.67;;;;;;;;;;4867223;29;20040;-67
2023/09/13 10:49:34;;;;;;;6.88;1.70;;;;;;;;;;4865452;29;20062;-74
2023/09/13 10:52:01;;;;;;;7.68;1.98;;;;;;;;;;4868453;29;20052;-74
2023/09/13 10:54:29;;;;;;;8.50;1.88;;;;;;;;;;4869228;29;20103;-73
2023/09/13 10:56:55;;;;;;;7.35;2.20;;;;;;;;;;4884685;29;20049;-73
2023/09/13 10:59:22;;;;;;;7.40;1.98;;;;;;;;;;4870267;29;20068;-73
2023/09/13 11:01:48;;;;;;;3.05;1.80;;;;;;;;;;4863359;29;20370;-69
2023/09/13 11:04:15;;;;;;;7.70;1.80;;;;;;;;;;4871113;29;20045;-70
2023/09/13 11:06:41;;;;;;;6.97;1.95;;;;;;;;;;4868235;29;20041;-70
2023/09/13 11:09:11;;;;;;;8.15;1.63;;;;;;;;;;4869769;29;20104;-70
2023/09/13 11:11:38;;;;;;;5.78;1.63;;;;;;;;;;4870782;29;20135;-70
2023/09/13 11:14:10;;;;;;;7.22;1.67;;;;;;;;;;4868827;29;20595;-70
2023/09/13 11:16:36;;;;;;;8.77;2.20;;;;;;;;;;4871632;29;20047;-70
2023/09/13 11:19:04;;;;;;;7.35;1.67;;;;;;;;;;4873269;29;22286;-79
2023/09/13 11:21:45;;;;;;;8.18;2.40;;;;;;;;;;4872893;29;20048;-72
2023/09/13 11:24:11;;;;;;;8.35;1.50;;;;;;;;;;4874060;29;20076;-72
2023/09/13 11:26:44;;;;;;;8.88;2.08;;;;;;;;;;4874034;29;20629;-71
2023/09/13 11:29:21;;;;;;;11.32;2.03;;;;;;;;;;4869783;29;20409;-73
2023/09/13 11:32:17;;;;;;;8.57;1.85;;;;;;;;;;4869516;29;20048;-71
2023/09/13 11:34:44;;;;;;;9.55;2.05;;;;;;;;;;4854788;29;20139;-69
2023/09/13 11:37:11;;;;;;;12.00;1.83;;;;;;;;;;4870572;29;20171;-69
2023/09/13 11:39:38;;;;;;;7.80;1.85;;;;;;;;;;4869192;29;20164;-69
2023/09/13 11:42:05;;;;;;;12.60;1.83;;;;;;;;;;4870796;29;20132;-69
2023/09/13 11:44:31;;;;;;;11.38;2.22;;;;;;;;;;4871313;29;20044;-72
2023/09/13 11:46:57;;;;;;;9.05;1.77;;;;;;;;;;4869471;29;20047;-72
2023/09/13 11:49:24;;;;;;;11.32;2.08;;;;;;;;;;4852990;29;22258;-72
2023/09/13 11:51:52;;;;;;;11.52;2.35;;;;;;;;;;4870265;29;20572;-74
2023/09/13 11:54:19;;;;;;;10.50;2.10;;;;;;;;;;4867651;29;20059;-75
2023/09/13 11:56:45;;;;;;;9.63;2.03;;;;;;;;;;4870350;29;20090;-76
2023/09/13 11:59:13;;;;;;;8.88;1.88;;;;;;;;;;4855151;29;20198;-77
2023/09/13 12:01:45;;;;;;;12.25;2.60;;;;;;;;;;4871574;29;20041;-76
2023/09/13 12:04:13;;;;;;;10.35;1.83;;;;;;;;;;4868909;29;20048;-75
2023/09/13 12:06:46;;;;;;;10.52;2.10;;;;;;;;;;4851786;29;20627;-76
2023/09/13 12:09:16;;;;;;;9.43;1.93;;;;;;;;;;4870909;29;20076;-67
2023/09/13 12:11:43;;;;;;;7.32;2.28;;;;;;;;;;4870595;29;21437;-68
2023/09/13 12:14:10;;;;;;;12.57;2.30;;;;;;;;;;4868886;29;20100;-68
2023/09/13 12:16:39;;;;;;;11.02;2.65;;;;;;;;;;4871713;29;20041;-68
2023/09/13 12:19:06;;;;;;;9.68;1.75;;;;;;;;;;4876017;29;20044;-68
2023/09/13 12:21:32;;;;;;;12.98;2.20;;;;;;;;;;4872146;29;20088;-69
2023/09/13 12:23:58;;;;;;;14.68;2.55;;;;;;;;;;4874299;29;20044;-67
2023/09/13 12:26:25;;;;;;;13.23;2.35;;;;;;;;;;4874693;29;20132;-68
2023/09/13 12:28:52;;;;;;;7.20;2.15;;;;;;;;;;4874775;29;20072;-68
2023/09/13 12:31:18;;;;;;;11.35;2.58;;;;;;;;;;4867739;29;20048;-68
2023/09/13 12:33:51;;;;;;;11.90;2.10;;;;;;;;;;4871553;29;20156;-70
2023/09/13 12:36:18;;;;;;;11.53;2.67;;;;;;;;;;4869047;29;20159;-66
2023/09/13 12:38:44;;;;;;;7.82;1.70;;;;;;;;;;4869383;29;20195;-67
2023/09/13 12:41:13;;;;;;;8.68;1.85;;;;;;;;;;4872056;29;20064;-67
2023/09/13 12:43:42;;;;;;;7.75;1.95;;;;;;;;;;4873246;29;20497;-67
2023/09/13 12:46:10;;;;;;;8.23;2.13;;;;;;;;;;4869987;29;20044;-67
2023/09/13 12:48:38;;;;;;;8.65;2.22;;;;;;;;;;4868878;29;20048;-67
2023/09/13 12:51:04;;;;;;;12.23;2.33;;;;;;;;;;4870796;29;20053;-67
2023/09/13 12:53:30;;;;;;;7.13;1.92;;;;;;;;;;4871011;29;20095;-67
2023/09/13 12:55:57;;;;;;;10.90;2.75;;;;;;;;;;4870253;29;20078;-66
2023/09/13 12:58:23;;;;;;;11.18;2.83;;;;;;;;;;4867818;29;20686;-67
2023/09/13 13:00:50;;;;;;;6.38;1.90;;;;;;;;;;4869892;29;20192;-67
2023/09/13 13:03:17;;;;;;;9.40;2.10;;;;;;;;;;4871013;29;22046;-66
2023/09/13 13:05:44;;;;;;;15.73;3.63;;;;;;;;;;4870657;29;20609;-67
2023/09/13 13:08:10;;;;;;;7.22;1.90;;;;;;;;;;4878787;29;20552;-73
2023/09/13 13:10:55;;;;;;;9.98;2.25;;;;;;;;;;4869938;29;20131;-76
2023/09/13 13:13:22;;;;;;;10.52;2.08;;;;;;;;;;4870841;29;20053;-78
2023/09/13 13:15:48;;;;;;;7.95;1.92;;;;;;;;;;4871148;29;20051;-76
2023/09/13 13:18:14;;;;;;;10.40;2.05;;;;;;;;;;4869342;29;20101;-74
2023/09/13 13:20:47;;;;;;;8.63;2.20;;;;;;;;;;4869841;29;20044;-74
2023/09/13 13:23:13;;;;;;;10.95;2.13;;;;;;;;;;4873561;29;20049;-76
2023/09/13 13:25:41;;;;;;;9.80;2.22;;;;;;;;;;4872227;29;20067;-76
2023/09/13 13:28:07;;;;;;;11.15;2.28;;;;;;;;;;4873234;29;20048;-74
2023/09/13 13:30:34;;;;;;;13.20;2.03;;;;;;;;;;4872438;29;20766;-75
2023/09/13 13:33:00;;;;;;;11.07;2.17;;;;;;;;;;4873230;29;20067;-74
2023/09/13 13:35:26;;;;;;;6.65;2.00;;;;;;;;;;4871707;29;20041;-75
2023/09/13 13:37:52;;;;;;;7.82;1.98;;;;;;;;;;4869075;29;20063;-74
2023/09/13 13:40:18;;;;;;;11.02;2.42;;;;;;;;;;4870875;29;20673;-74
2023/09/13 13:42:44;;;;;;;8.00;2.60;;;;;;;;;;4869037;29;20044;-74
2023/09/13 13:45:11;;;;;;;10.38;1.80;;;;;;;;;;4872527;29;20056;-74
2023/09/13 13:47:37;;;;;;;9.93;2.00;;;;;;;;;;4872679;29;21375;-72
2023/09/13 13:50:03;;;;;;;6.20;1.60;;;;;;;;;;4872277;29;20144;-75
2023/09/13 13:52:30;;;;;;;10.73;2.20;;;;;;;;;;4873158;29;20053;-74
2023/09/13 13:54:57;;;;;;;5.63;1.92;;;;;;;;;;4873455;29;20052;-75
2023/09/13 13:57:23;;;;;;;10.40;2.47;;;;;;;;;;4870445;29;20052;-73
2023/09/13 13:59:49;;;;;;;8.27;2.15;;;;;;;;;;4873838;29;20059;-73
2023/09/13 14:02:15;;;;;;;10.02;1.98;;;;;;;;;;4855689;29;20496;-73
2023/09/13 14:04:42;;;;;;;9.82;2.00;;;;;;;;;;4875119;29;20044;-85
2023/09/13 14:07:08;;;;;;;6.20;2.03;;;;;;;;;;4865067;29;20132;-74
2023/09/13 14:09:34;;;;;;;10.70;2.33;;;;;;;;;;4872186;29;20060;-77
2023/09/13 14:12:00;;;;;;;8.25;1.85;;;;;;;;;;4872131;29;20113;-76
2023/09/13 14:14:26;;;;;;;10.85;1.85;;;;;;;;;;4864612;29;20083;-76
2023/09/13 14:16:54;;;;;;;7.85;1.75;;;;;;;;;;4866413;29;20068;-76
2023/09/13 14:19:20;;;;;;;16.38;2.50;;;;;;;;;;4853465;29;20044;-77
2023/09/13 14:21:46;;;;;;;14.38;2.35;;;;;;;;;;4866451;29;20041;-77
2023/09/13 14:24:12;;;;;;;7.07;2.42;;;;;;;;;;4866222;29;20048;-73
2023/09/13 14:26:38;;;;;;;7.35;2.42;;;;;;;;;;4862026;29;20040;-74
2023/09/13 14:29:04;;;;;;;10.43;3.00;;;;;;;;;;4863208;29;20037;-73
2023/09/13 14:31:36;;;;;;;9.70;2.63;;;;;;;;;;4861996;29;20516;-75
2023/09/13 14:34:05;;;;;;;9.98;2.03;;;;;;;;;;4845554;29;20418;-75
2023/09/13 14:36:31;;;;;;;15.15;2.35;;;;;;;;;;4862264;29;20853;-75